Time;durP1;ratioP1;P1;durP2;ratioP2;P2;SDS_P1;SDS_P2;PMS_P1;PMS_P2;Temp;Humidity;BMP_temperature;BMP_pressure;BME280_temperature;BME280_humidity;BME280_pressure;Samples;Min_cycle;Max_cycle;Signal;HPM_P1;HPM_P2
2022/08/10 00:00:21;;;;;;;2.20;1.97;;;14.00;60.90;;;;;;4177504;28;20188;-72
2022/08/10 00:02:21;;;;;;;2.40;2.20;;;14.00;61.40;;;;;;4178977;28;20621;-72
2022/08/10 00:04:23;;;;;;;2.53;1.90;;;13.90;61.90;;;;;;4179008;28;20184;-71
2022/08/10 00:06:24;;;;;;;2.70;1.70;;;13.90;61.90;;;;;;4177837;28;20188;-72
2022/08/10 00:08:24;;;;;;;3.70;2.00;;;13.80;62.60;;;;;;4177652;28;20188;-71
2022/08/10 00:10:25;;;;;;;2.43;1.90;;;13.80;62.30;;;;;;4178359;28;20765;-72
2022/08/10 00:12:26;;;;;;;1.90;1.70;;;13.80;62.40;;;;;;4178901;28;20208;-72
2022/08/10 00:14:26;;;;;;;4.90;2.03;;;13.80;62.50;;;;;;4178835;28;20192;-71
2022/08/10 00:16:27;;;;;;;1.67;1.57;;;13.80;62.90;;;;;;4178854;28;20197;-70
2022/08/10 00:18:28;;;;;;;2.03;1.93;;;13.70;62.70;;;;;;4179031;28;20385;-70
2022/08/10 00:20:28;;;;;;;1.70;1.60;;;13.70;62.80;;;;;;4178285;28;20176;-71
2022/08/10 00:22:29;;;;;;;1.90;1.80;;;13.70;62.80;;;;;;4178891;28;20243;-70
2022/08/10 00:24:29;;;;;;;2.37;2.17;;;13.60;63.30;;;;;;4178949;28;20275;-71
2022/08/10 00:26:30;;;;;;;1.60;1.50;;;13.60;63.30;;;;;;4178779;28;20203;-71
2022/08/10 00:28:32;;;;;;;2.33;2.10;;;13.60;63.50;;;;;;4178998;28;20180;-70
2022/08/10 00:30:32;;;;;;;1.77;1.67;;;13.60;63.50;;;;;;4176707;28;20334;-71
2022/08/10 00:32:33;;;;;;;2.07;1.70;;;13.60;63.40;;;;;;4178645;28;20583;-71
2022/08/10 00:34:34;;;;;;;2.23;2.00;;;13.50;63.60;;;;;;4178743;28;20852;-70
2022/08/10 00:36:34;;;;;;;1.93;1.80;;;13.50;63.60;;;;;;4178884;28;20635;-70
2022/08/10 00:38:36;;;;;;;2.50;1.70;;;13.50;64.00;;;;;;4178549;28;20211;-71
2022/08/10 00:40:37;;;;;;;2.03;1.80;;;13.50;63.80;;;;;;4178065;28;20180;-71
2022/08/10 00:42:37;;;;;;;2.17;2.00;;;13.40;64.50;;;;;;4178861;28;20207;-72
2022/08/10 00:44:43;;;;;;;1.70;1.60;;;13.40;64.40;;;;;;4176952;28;20635;-71
2022/08/10 00:46:45;;;;;;;1.83;1.73;;;13.50;64.50;;;;;;4162457;28;20208;-72
2022/08/10 00:48:45;;;;;;;3.17;1.90;;;13.40;64.50;;;;;;4167327;28;20296;-71
2022/08/10 00:50:47;;;;;;;2.10;1.90;;;13.40;64.80;;;;;;4164737;28;20643;-72
2022/08/10 00:52:48;;;;;;;2.47;2.10;;;13.40;65.30;;;;;;4164068;28;20336;-71
2022/08/10 00:54:49;;;;;;;2.40;2.20;;;13.30;65.60;;;;;;4165205;28;20192;-72
2022/08/10 00:56:49;;;;;;;2.53;2.33;;;13.30;66.20;;;;;;4165274;28;20580;-71
2022/08/10 00:58:50;;;;;;;2.30;2.10;;;13.30;66.40;;;;;;4163674;28;20228;-69
2022/08/10 01:00:51;;;;;;;2.17;2.07;;;13.30;66.40;;;;;;4164538;28;20181;-70
2022/08/10 01:02:51;;;;;;;2.77;2.57;;;13.30;66.40;;;;;;4164900;28;20283;-70
2022/08/10 01:04:52;;;;;;;2.33;2.13;;;13.20;66.60;;;;;;4165016;28;20599;-70
2022/08/10 01:07:20;;;;;;;2.87;2.67;;;13.30;66.70;;;;;;4164909;28;20188;-69
2022/08/10 01:09:39;;;;;;;2.50;2.30;;;13.20;66.90;;;;;;4164843;28;20259;-70
2022/08/10 01:12:09;;;;;;;2.47;2.27;;;13.20;67.20;;;;;;4163000;28;20192;-70
2022/08/10 01:14:21;;;;;;;2.80;2.37;;;13.20;67.60;;;;;;4165182;28;20560;-70
2022/08/10 01:16:31;;;;;;;2.60;2.40;;;13.10;67.20;;;;;;4164725;28;20240;-70
2022/08/10 01:18:48;;;;;;;3.63;1.97;;;13.00;68.70;;;;;;4164687;28;20254;-70
2022/08/10 01:21:08;;;;;;;4.70;2.13;;;13.00;67.80;;;;;;4164372;28;20276;-70
2022/08/10 01:23:39;;;;;;;2.17;1.97;;;13.00;67.80;;;;;;4164372;28;20715;-70
2022/08/10 01:26:17;;;;;;;2.87;2.33;;;13.00;68.10;;;;;;4164539;28;20575;-70
2022/08/10 01:28:36;;;;;;;3.00;2.70;;;12.90;68.60;;;;;;4164652;28;20276;-70
2022/08/10 01:30:37;;;;;;;2.70;2.50;;;12.80;69.30;;;;;;4163755;28;20232;-70
2022/08/10 01:32:45;;;;;;;3.20;2.77;;;12.80;69.80;;;;;;4164647;28;20201;-70
2022/08/10 01:34:52;;;;;;;2.80;2.60;;;12.80;70.00;;;;;;4163266;28;20610;-70
2022/08/10 01:37:02;;;;;;;4.40;3.03;;;12.70;70.10;;;;;;4164320;28;20186;-70
2022/08/10 01:39:05;;;;;;;2.83;2.63;;;12.70;70.60;;;;;;4164526;28;20591;-70
2022/08/10 01:41:26;;;;;;;2.53;2.33;;;12.70;70.80;;;;;;4163813;28;20185;-71
2022/08/10 01:43:29;;;;;;;2.60;2.40;;;12.70;71.10;;;;;;4164588;28;20226;-71
2022/08/10 01:45:31;;;;;;;3.00;2.70;;;12.60;71.70;;;;;;4164438;28;20196;-70
2022/08/10 01:50:03;;;;;;;2.60;2.40;;;12.60;72.30;;;;;;4164546;28;20200;-70
2022/08/10 01:52:06;;;;;;;2.50;2.30;;;12.50;72.30;;;;;;4162354;28;20204;-69
2022/08/10 01:54:10;;;;;;;2.80;2.30;;;12.50;73.00;;;;;;4164213;28;20185;-70
2022/08/10 01:56:13;;;;;;;3.00;2.73;;;12.50;72.60;;;;;;4164209;28;20205;-69
2022/08/10 01:58:16;;;;;;;2.50;2.30;;;12.40;73.00;;;;;;4164002;28;20638;-71
2022/08/10 02:00:17;;;;;;;3.20;2.40;;;12.40;73.00;;;;;;4163089;28;20299;-71
2022/08/10 02:02:19;;;;;;;2.40;2.20;;;12.40;73.00;;;;;;4162804;28;20681;-70
2022/08/10 02:04:22;;;;;;;2.63;2.43;;;12.40;73.00;;;;;;4164016;28;20204;-71
2022/08/10 02:06:27;;;;;;;4.83;2.40;;;12.40;73.40;;;;;;4164047;28;20184;-71
2022/08/10 02:08:30;;;;;;;2.53;2.33;;;12.30;73.90;;;;;;4163897;28;20192;-71
2022/08/10 02:10:32;;;;;;;3.40;2.50;;;12.30;74.50;;;;;;4163014;28;20666;-71
2022/08/10 02:12:35;;;;;;;2.70;2.50;;;12.30;74.50;;;;;;4162453;28;20240;-71
2022/08/10 02:14:42;;;;;;;3.33;3.03;;;12.30;75.00;;;;;;4161705;28;20537;-71
2022/08/10 02:16:47;;;;;;;2.60;2.40;;;12.30;75.10;;;;;;4176510;28;20196;-71
2022/08/10 02:18:49;;;;;;;2.80;2.60;;;12.30;75.30;;;;;;4179999;28;20218;-71
2022/08/10 02:20:51;;;;;;;3.00;2.80;;;12.30;75.50;;;;;;4179484;28;20169;-71
2022/08/10 02:22:56;;;;;;;3.47;2.57;;;12.30;75.50;;;;;;4178772;28;20235;-71
2022/08/10 02:24:59;;;;;;;3.07;2.80;;;12.20;75.90;;;;;;4180227;28;20188;-71
2022/08/10 02:27:00;;;;;;;3.23;2.93;;;12.30;76.20;;;;;;4180259;28;20618;-71
2022/08/10 02:29:01;;;;;;;2.73;2.53;;;12.20;76.60;;;;;;4178935;28;20214;-71
2022/08/10 02:31:04;;;;;;;2.80;2.10;;;12.20;76.60;;;;;;4178103;28;20249;-72
2022/08/10 02:33:05;;;;;;;2.70;2.50;;;12.20;76.30;;;;;;4179916;28;20200;-71
2022/08/10 02:35:11;;;;;;;3.23;2.20;;;12.20;76.30;;;;;;4179914;28;20184;-71
2022/08/10 02:37:13;;;;;;;3.37;2.83;;;12.10;76.60;;;;;;4178592;28;20267;-71
2022/08/10 02:39:16;;;;;;;3.23;2.43;;;12.10;77.00;;;;;;4180053;28;20176;-71
2022/08/10 02:41:43;;;;;;;3.00;2.43;;;12.10;77.20;;;;;;4179329;28;20306;-71
2022/08/10 02:43:53;;;;;;;2.73;2.40;;;12.10;77.30;;;;;;4180014;28;20255;-71
2022/08/10 02:46:04;;;;;;;3.83;2.60;;;12.10;77.60;;;;;;4179903;28;20748;-71
2022/08/10 02:48:15;;;;;;;2.50;2.30;;;12.00;78.00;;;;;;4180019;28;20178;-71
2022/08/10 02:50:25;;;;;;;2.93;2.73;;;12.00;78.00;;;;;;4179714;28;20207;-72
2022/08/10 02:52:49;;;;;;;2.50;2.30;;;12.00;78.60;;;;;;4177479;28;20808;-71
2022/08/10 02:55:00;;;;;;;4.53;2.67;;;12.00;78.80;;;;;;4172114;28;20177;-72
2022/08/10 02:57:21;;;;;;;2.60;2.40;;;11.90;78.70;;;;;;4179674;28;20258;-71
2022/08/10 02:59:38;;;;;;;3.03;2.57;;;11.90;79.30;;;;;;4179791;28;20168;-71
2022/08/10 03:01:47;;;;;;;2.93;2.73;;;12.00;79.90;;;;;;4178019;28;20185;-71
2022/08/10 03:03:59;;;;;;;3.10;2.80;;;11.90;80.20;;;;;;4179860;28;20206;-71
2022/08/10 03:06:06;;;;;;;5.00;3.07;;;11.90;80.40;;;;;;4179484;28;20215;-71
2022/08/10 03:08:09;;;;;;;2.70;2.33;;;11.90;80.70;;;;;;4179663;28;20218;-71
2022/08/10 03:10:14;;;;;;;2.93;2.37;;;12.00;80.00;;;;;;4177721;28;20203;-71
2022/08/10 03:12:16;;;;;;;2.40;2.20;;;12.00;79.60;;;;;;4178301;28;20225;-71
2022/08/10 03:14:18;;;;;;;2.90;2.70;;;12.00;79.30;;;;;;4179476;28;20192;-71
2022/08/10 03:16:21;;;;;;;3.47;2.50;;;11.90;79.20;;;;;;4179389;28;20652;-71
2022/08/10 03:18:23;;;;;;;3.07;2.70;;;11.90;78.90;;;;;;4179343;28;20207;-71
2022/08/10 03:20:31;;;;;;;2.87;2.67;;;11.80;79.00;;;;;;4178664;28;20176;-71
2022/08/10 03:22:33;;;;;;;2.80;2.60;;;11.70;79.80;;;;;;4178039;28;20253;-71
2022/08/10 03:24:35;;;;;;;3.00;2.77;;;11.80;80.10;;;;;;4179395;28;20267;-72
2022/08/10 03:26:37;;;;;;;3.10;2.50;;;11.80;80.40;;;;;;4178192;28;20180;-71
2022/08/10 03:28:38;;;;;;;2.80;2.60;;;11.80;80.90;;;;;;4179509;28;20188;-71
2022/08/10 03:30:40;;;;;;;5.07;2.83;;;11.80;80.40;;;;;;4178653;28;20271;-71
2022/08/10 03:32:43;;;;;;;4.07;2.70;;;11.80;80.90;;;;;;4179099;28;20203;-71
2022/08/10 03:34:44;;;;;;;3.10;2.80;;;11.70;81.10;;;;;;4179114;28;20188;-70
2022/08/10 03:36:45;;;;;;;2.70;2.50;;;11.70;81.00;;;;;;4179304;28;20266;-70
2022/08/10 03:38:50;;;;;;;2.93;2.60;;;11.70;81.10;;;;;;4179089;28;20208;-70
2022/08/10 03:40:53;;;;;;;2.60;2.40;;;11.70;81.10;;;;;;4178813;28;20187;-70
2022/08/10 03:42:57;;;;;;;4.60;3.00;;;11.70;81.20;;;;;;4178022;28;20204;-70
2022/08/10 03:44:59;;;;;;;3.27;2.70;;;11.70;81.30;;;;;;4179408;28;20297;-70
2022/08/10 03:47:01;;;;;;;3.10;2.80;;;11.70;81.30;;;;;;4179287;28;20183;-69
2022/08/10 03:49:04;;;;;;;3.60;2.60;;;11.70;81.40;;;;;;4179349;28;20710;-69
2022/08/10 03:51:06;;;;;;;3.23;2.93;;;11.70;81.10;;;;;;4176955;28;20184;-69
2022/08/10 03:53:07;;;;;;;3.20;2.90;;;11.70;81.60;;;;;;4178994;28;20211;-69
2022/08/10 03:55:09;;;;;;;4.07;3.67;;;11.60;82.90;;;;;;4179091;28;20780;-69
2022/08/10 03:57:11;;;;;;;3.27;3.00;;;11.60;82.00;;;;;;4178892;28;20782;-71
2022/08/10 03:59:13;;;;;;;3.30;3.00;;;11.50;83.30;;;;;;4179057;28;20187;-70
2022/08/10 04:01:14;;;;;;;3.03;2.70;;;11.50;83.60;;;;;;4178926;28;20191;-69
2022/08/10 04:03:15;;;;;;;2.97;2.73;;;11.60;84.00;;;;;;4179799;28;20212;-69
2022/08/10 04:05:16;;;;;;;3.00;2.80;;;11.50;84.30;;;;;;4179828;28;20220;-70
2022/08/10 04:07:17;;;;;;;2.93;2.73;;;11.50;84.40;;;;;;4178958;28;20537;-70
2022/08/10 04:09:18;;;;;;;3.20;2.90;;;11.60;84.20;;;;;;4179552;28;20195;-69
2022/08/10 04:11:19;;;;;;;3.13;2.87;;;11.60;84.10;;;;;;4177725;28;20613;-69
2022/08/10 04:13:21;;;;;;;3.77;3.40;;;11.60;84.20;;;;;;4180490;28;20215;-69
2022/08/10 04:15:25;;;;;;;3.10;2.90;;;11.50;83.70;;;;;;4180041;28;20218;-69
2022/08/10 04:17:25;;;;;;;3.03;2.73;;;11.40;83.60;;;;;;4180433;28;20249;-69
2022/08/10 04:19:32;;;;;;;3.20;2.90;;;11.40;83.70;;;;;;4178844;28;20216;-69
2022/08/10 04:21:39;;;;;;;3.23;2.63;;;11.40;83.90;;;;;;4176431;28;20192;-69
2022/08/10 04:23:46;;;;;;;3.60;3.30;;;11.40;83.70;;;;;;4181600;28;20188;-69
2022/08/10 04:25:46;;;;;;;3.07;2.67;;;11.40;83.80;;;;;;4180565;28;20165;-69
2022/08/10 04:27:48;;;;;;;3.77;2.50;;;11.50;84.20;;;;;;4181711;28;20186;-70
2022/08/10 04:29:50;;;;;;;4.07;3.60;;;11.50;84.60;;;;;;4181488;28;20210;-70
2022/08/10 04:31:51;;;;;;;3.97;3.67;;;11.50;84.90;;;;;;4170738;28;20216;-70
2022/08/10 04:33:53;;;;;;;3.33;2.90;;;11.50;85.50;;;;;;4180643;28;20192;-70
2022/08/10 04:35:55;;;;;;;3.33;3.03;;;11.60;85.30;;;;;;4173168;28;20188;-70
2022/08/10 04:37:58;;;;;;;4.90;3.20;;;11.60;85.50;;;;;;4181419;28;20301;-70
2022/08/10 04:39:59;;;;;;;3.73;3.13;;;11.60;85.70;;;;;;4181514;28;20207;-70
2022/08/10 04:42:00;;;;;;;2.90;2.70;;;11.60;86.10;;;;;;4181009;28;20211;-70
2022/08/10 04:44:00;;;;;;;3.20;3.00;;;11.70;86.60;;;;;;4181767;28;20267;-70
2022/08/10 04:46:01;;;;;;;3.57;3.23;;;11.70;86.30;;;;;;4181439;28;20292;-70
2022/08/10 04:48:02;;;;;;;3.03;2.73;;;11.80;86.30;;;;;;4174643;28;20188;-70
2022/08/10 04:50:03;;;;;;;3.17;2.80;;;11.90;86.30;;;;;;4164914;28;20184;-70
2022/08/10 04:52:04;;;;;;;3.50;3.20;;;11.90;85.40;;;;;;4164348;28;20258;-70
2022/08/10 04:54:05;;;;;;;3.70;3.40;;;12.00;85.20;;;;;;4164727;28;20185;-70
2022/08/10 04:56:07;;;;;;;3.10;2.87;;;12.00;84.90;;;;;;4164635;28;20217;-70
2022/08/10 04:58:08;;;;;;;5.70;3.10;;;12.10;84.90;;;;;;4177846;28;20208;-70
2022/08/10 05:00:09;;;;;;;3.33;3.03;;;12.20;84.70;;;;;;4181190;28;20185;-71
2022/08/10 05:02:10;;;;;;;3.33;3.00;;;12.20;83.90;;;;;;4180854;28;20205;-70
2022/08/10 05:04:10;;;;;;;3.30;3.00;;;12.20;83.30;;;;;;4181220;28;20654;-70
2022/08/10 05:06:11;;;;;;;3.13;2.83;;;12.30;83.70;;;;;;4181102;28;20320;-70
2022/08/10 05:08:12;;;;;;;2.93;2.70;;;12.30;83.50;;;;;;4180903;28;20632;-71
2022/08/10 05:10:12;;;;;;;3.63;2.90;;;12.40;83.80;;;;;;4179334;28;20579;-70
2022/08/10 05:12:13;;;;;;;4.50;2.93;;;12.40;83.70;;;;;;4180567;28;20219;-71
2022/08/10 05:14:13;;;;;;;3.40;2.80;;;12.50;83.30;;;;;;4180907;28;20215;-70
2022/08/10 05:16:14;;;;;;;3.03;2.70;;;12.50;82.80;;;;;;4180977;28;20309;-71
2022/08/10 05:18:14;;;;;;;3.93;2.80;;;12.50;82.70;;;;;;4179354;28;20207;-69
2022/08/10 05:20:16;;;;;;;3.67;3.00;;;12.60;82.90;;;;;;4180440;28;20188;-69
2022/08/10 05:22:16;;;;;;;4.33;2.50;;;12.70;82.50;;;;;;4180599;28;20699;-71
2022/08/10 05:24:17;;;;;;;4.23;3.40;;;12.70;81.90;;;;;;4180933;28;20180;-71
2022/08/10 05:26:17;;;;;;;4.80;2.83;;;12.80;81.90;;;;;;4181206;28;20188;-71
2022/08/10 05:28:18;;;;;;;3.30;3.00;;;12.80;81.90;;;;;;4180624;28;20180;-71
2022/08/10 05:30:20;;;;;;;2.87;2.50;;;12.90;81.90;;;;;;4179975;28;20652;-70
2022/08/10 05:32:21;;;;;;;3.17;2.97;;;12.90;81.70;;;;;;4179412;28;20298;-70
2022/08/10 05:34:27;;;;;;;2.93;2.70;;;13.00;81.70;;;;;;4179709;28;20215;-70
2022/08/10 05:36:28;;;;;;;3.10;2.80;;;13.00;81.40;;;;;;4180731;28;20629;-71
2022/08/10 05:38:30;;;;;;;3.13;2.83;;;13.10;80.90;;;;;;4179189;28;20224;-71
2022/08/10 05:40:31;;;;;;;3.73;2.53;;;13.20;80.40;;;;;;4179807;28;20184;-70
2022/08/10 05:42:32;;;;;;;2.80;2.57;;;13.40;79.80;;;;;;4180441;28;20278;-71
2022/08/10 05:44:33;;;;;;;2.83;2.63;;;13.50;79.00;;;;;;4180407;28;20184;-72
2022/08/10 05:46:33;;;;;;;4.40;3.00;;;13.50;79.00;;;;;;4180460;28;20191;-70
2022/08/10 05:48:36;;;;;;;3.40;3.03;;;13.50;79.30;;;;;;4179024;28;20263;-70
2022/08/10 05:50:37;;;;;;;2.50;2.30;;;13.50;79.10;;;;;;4179887;28;20263;-71
2022/08/10 05:52:37;;;;;;;3.50;3.20;;;13.60;78.80;;;;;;4180614;28;20212;-70
2022/08/10 05:54:38;;;;;;;3.63;2.70;;;13.60;78.60;;;;;;4180331;28;20267;-71
2022/08/10 05:56:40;;;;;;;3.87;2.67;;;13.70;78.00;;;;;;4180419;28;20180;-70
2022/08/10 05:58:40;;;;;;;2.90;2.70;;;13.70;78.30;;;;;;4178927;28;20731;-70
2022/08/10 06:00:45;;;;;;;3.47;3.17;;;13.70;78.00;;;;;;4179592;28;20174;-70
2022/08/10 06:02:53;;;;;;;3.23;2.93;;;13.80;78.00;;;;;;4178922;28;20291;-69
2022/08/10 06:04:57;;;;;;;2.33;2.13;;;13.90;77.80;;;;;;4180026;28;20192;-70
2022/08/10 06:07:00;;;;;;;4.27;2.53;;;13.80;78.00;;;;;;4180373;28;20210;-71
2022/08/10 06:09:01;;;;;;;2.80;2.57;;;13.90;77.90;;;;;;4180333;28;20188;-71
2022/08/10 06:11:04;;;;;;;3.23;2.93;;;14.00;77.10;;;;;;4179784;28;20188;-72
2022/08/10 06:15:25;;;;;;;2.83;2.57;;;14.20;76.80;;;;;;4180816;28;20207;-72
2022/08/10 06:17:28;;;;;;;3.30;2.57;;;14.40;75.40;;;;;;4179159;28;20216;-72
2022/08/10 06:19:30;;;;;;;2.80;2.60;;;14.60;74.20;;;;;;4180691;28;20185;-73
2022/08/10 06:21:32;;;;;;;5.47;5.17;;;14.60;73.60;;;;;;4179724;28;20208;-72
2022/08/10 06:23:34;;;;;;;2.40;2.20;;;14.60;74.10;;;;;;4180006;28;20290;-73
2022/08/10 06:25:35;;;;;;;8.93;8.43;;;14.70;73.50;;;;;;4180070;28;20184;-70
2022/08/10 06:27:37;;;;;;;2.63;2.43;;;14.70;73.10;;;;;;4179860;28;20210;-70
2022/08/10 06:29:42;;;;;;;4.53;2.70;;;14.90;72.20;;;;;;4179882;28;20184;-70
2022/08/10 06:31:47;;;;;;;2.50;2.30;;;15.20;70.70;;;;;;4179168;28;20192;-69
2022/08/10 06:33:50;;;;;;;3.40;2.77;;;15.20;70.50;;;;;;4179639;28;20230;-69
2022/08/10 06:35:53;;;;;;;4.67;4.30;;;15.30;70.00;;;;;;4179680;28;20729;-70
2022/08/10 06:37:57;;;;;;;2.77;2.00;;;15.50;68.60;;;;;;4179396;28;20568;-71
2022/08/10 06:39:58;;;;;;;3.33;2.80;;;15.60;67.90;;;;;;4178201;28;20172;-70
2022/08/10 06:42:45;;;;;;;3.03;2.57;;;15.60;68.20;;;;;;4177619;28;20641;-71
2022/08/10 06:45:02;;;;;;;4.43;2.20;;;15.90;67.00;;;;;;4177172;28;20191;-70
2022/08/10 06:47:04;;;;;;;3.53;2.50;;;16.20;64.70;;;;;;4177246;28;20172;-70
2022/08/10 06:49:09;;;;;;;3.77;2.07;;;16.30;64.20;;;;;;4177212;28;20194;-70
2022/08/10 06:51:16;;;;;;;5.90;5.50;;;16.50;62.80;;;;;;4177511;28;20223;-70
2022/08/10 06:53:30;;;;;;;2.50;2.10;;;16.60;63.30;;;;;;4178726;28;20210;-70
2022/08/10 06:55:32;;;;;;;3.90;2.03;;;16.70;62.50;;;;;;4176590;28;20968;-69
2022/08/10 06:57:36;;;;;;;2.20;2.00;;;16.80;61.80;;;;;;4178070;28;20239;-69
2022/08/10 06:59:45;;;;;;;6.90;2.17;;;16.90;61.10;;;;;;4171027;28;20257;-69
2022/08/10 07:01:52;;;;;;;3.17;2.93;;;17.10;59.60;;;;;;4168577;28;20654;-69
2022/08/10 07:04:35;;;;;;;3.63;3.33;;;17.30;58.90;;;;;;4170655;28;20181;-69
2022/08/10 07:06:42;;;;;;;2.47;2.27;;;17.40;58.20;;;;;;4162724;28;20547;-69
2022/08/10 07:08:43;;;;;;;3.60;2.17;;;17.50;58.10;;;;;;4161359;28;20561;-70
2022/08/10 07:10:46;;;;;;;9.77;9.10;;;17.60;57.40;;;;;;4175438;28;20254;-70
2022/08/10 07:12:49;;;;;;;2.50;2.30;;;17.70;57.00;;;;;;4170531;28;20203;-70
2022/08/10 07:14:52;;;;;;;4.37;4.17;;;17.90;56.90;;;;;;4169287;28;20216;-70
2022/08/10 07:16:55;;;;;;;2.17;2.00;;;18.00;55.60;;;;;;4169181;28;20665;-71
2022/08/10 07:18:57;;;;;;;3.97;3.70;;;18.10;55.20;;;;;;4168953;28;20216;-69
2022/08/10 07:21:00;;;;;;;10.23;9.47;;;18.10;55.30;;;;;;4168482;28;20181;-69
2022/08/10 07:23:02;;;;;;;2.67;1.97;;;18.10;55.90;;;;;;4169048;28;20193;-71
2022/08/10 07:25:04;;;;;;;2.60;1.83;;;18.20;54.80;;;;;;4168610;28;20180;-71
2022/08/10 07:27:06;;;;;;;15.90;15.03;;;18.40;54.40;;;;;;4164558;28;20275;-71
2022/08/10 07:29:07;;;;;;;14.27;13.13;;;18.50;54.00;;;;;;4161172;28;20181;-71
2022/08/10 07:31:09;;;;;;;2.43;2.10;;;18.50;52.90;;;;;;4160326;28;20192;-71
2022/08/10 07:33:13;;;;;;;2.57;2.33;;;18.60;53.00;;;;;;4161171;28;20667;-71
2022/08/10 07:35:15;;;;;;;3.27;2.83;;;18.80;51.50;;;;;;4161050;28;20190;-71
2022/08/10 07:37:17;;;;;;;4.47;1.90;;;19.00;51.30;;;;;;4162095;28;20263;-71
2022/08/10 07:39:23;;;;;;;2.57;2.37;;;19.00;50.70;;;;;;4144710;28;20633;-70
2022/08/10 07:41:29;;;;;;;2.00;1.80;;;19.20;50.30;;;;;;4160359;28;20191;-71
2022/08/10 07:43:37;;;;;;;3.07;2.10;;;19.40;49.50;;;;;;4161429;28;20563;-70
2022/08/10 07:45:39;;;;;;;17.63;16.60;;;19.50;49.70;;;;;;4161008;28;20192;-71
2022/08/10 07:47:47;;;;;;;1.97;1.87;;;19.80;48.10;;;;;;4177252;28;20234;-70
2022/08/10 07:49:51;;;;;;;2.50;2.03;;;19.80;48.10;;;;;;4177431;28;20257;-69
2022/08/10 07:51:55;;;;;;;2.80;2.60;;;19.80;48.40;;;;;;4176673;28;20707;-69
2022/08/10 07:54:00;;;;;;;13.93;13.10;;;19.90;48.00;;;;;;4177238;28;20180;-71
2022/08/10 07:56:03;;;;;;;3.10;2.00;;;20.10;47.20;;;;;;4160898;28;20185;-72
2022/08/10 07:58:05;;;;;;;9.73;9.00;;;20.10;46.70;;;;;;4164005;28;20252;-72
2022/08/10 08:00:09;;;;;;;3.43;2.30;;;20.20;46.70;;;;;;4180130;28;20227;-70
2022/08/10 08:02:41;;;;;;;3.50;3.20;;;20.30;46.00;;;;;;4180540;28;20696;-71
2022/08/10 08:04:42;;;;;;;2.20;2.00;;;20.50;44.80;;;;;;4179320;28;20245;-71
2022/08/10 08:06:45;;;;;;;13.47;12.73;;;20.50;46.50;;;;;;4179635;28;20282;-71
2022/08/10 08:08:47;;;;;;;2.10;1.90;;;20.70;44.00;;;;;;4180549;28;20195;-70
2022/08/10 08:10:48;;;;;;;2.10;1.60;;;20.80;43.60;;;;;;4178864;28;20219;-70
2022/08/10 08:12:50;;;;;;;37.83;35.17;;;21.20;43.30;;;;;;4162830;28;20292;-70
2022/08/10 08:14:52;;;;;;;12.17;11.37;;;21.30;41.90;;;;;;4179160;28;20184;-71
2022/08/10 08:16:55;;;;;;;3.50;3.20;;;21.20;41.50;;;;;;4180234;28;20231;-71
2022/08/10 08:18:56;;;;;;;2.07;1.60;;;21.30;41.40;;;;;;4180450;28;20249;-71
2022/08/10 08:20:57;;;;;;;5.93;5.17;;;21.10;41.30;;;;;;4179943;28;20173;-72
2022/08/10 08:22:58;;;;;;;2.13;1.90;;;21.10;41.00;;;;;;4180362;28;20366;-72
2022/08/10 08:25:00;;;;;;;2.20;1.57;;;21.30;40.80;;;;;;4181838;28;20180;-72
2022/08/10 08:27:03;;;;;;;1.70;1.60;;;21.50;40.00;;;;;;4180622;28;20180;-72
2022/08/10 08:29:04;;;;;;;5.43;4.90;;;21.70;39.60;;;;;;4180371;28;20214;-72
2022/08/10 08:31:06;;;;;;;4.43;1.93;;;21.70;39.30;;;;;;4162967;28;20193;-72
2022/08/10 08:33:08;;;;;;;3.20;2.17;;;21.90;38.90;;;;;;4180427;28;20215;-72
2022/08/10 08:35:14;;;;;;;9.83;9.27;;;22.00;38.10;;;;;;4180400;28;20230;-72
2022/08/10 08:37:16;;;;;;;3.40;2.37;;;22.00;38.00;;;;;;4180276;28;20712;-72
2022/08/10 08:39:17;;;;;;;2.73;1.80;;;22.00;37.90;;;;;;4180253;28;20192;-72
2022/08/10 08:42:04;;;;;;;3.17;1.60;;;22.00;37.70;;;;;;4179755;28;20210;-74
2022/08/10 08:44:22;;;;;;;3.40;2.57;;;22.20;37.60;;;;;;4180451;28;20176;-72
2022/08/10 08:46:43;;;;;;;1.77;1.37;;;22.10;36.60;;;;;;4180063;28;20159;-72
2022/08/10 08:49:07;;;;;;;2.90;1.77;;;22.20;36.50;;;;;;4181374;28;20176;-72
2022/08/10 08:51:45;;;;;;;8.10;7.53;;;22.40;35.90;;;;;;4179232;28;20184;-72
2022/08/10 08:54:16;;;;;;;2.37;1.93;;;22.40;35.80;;;;;;4181696;28;20176;-72
2022/08/10 08:57:03;;;;;;;4.03;1.57;;;22.50;35.80;;;;;;4163120;28;20215;-72
2022/08/10 08:59:35;;;;;;;2.27;1.60;;;22.50;35.50;;;;;;4181253;28;20246;-72
2022/08/10 09:02:22;;;;;;;5.60;1.57;;;22.50;35.40;;;;;;4177208;28;20189;-72
2022/08/10 09:04:35;;;;;;;2.77;2.30;;;22.50;36.30;;;;;;4168074;28;20307;-72
2022/08/10 09:07:09;;;;;;;2.27;2.07;;;22.30;35.50;;;;;;4164708;28;20230;-72
2022/08/10 09:09:32;;;;;;;9.33;8.73;;;22.40;35.40;;;;;;4194809;28;20187;-72
2022/08/10 09:12:19;;;;;;;2.40;1.53;;;22.50;35.00;;;;;;4195648;28;20250;-72
2022/08/10 09:14:51;;;;;;;3.10;2.23;;;22.90;34.50;;;;;;4179657;28;20188;-72
2022/08/10 09:17:00;;;;;;;1.60;1.50;;;23.00;33.80;;;;;;4196280;28;20787;-72
2022/08/10 09:19:09;;;;;;;1.60;1.50;;;23.20;33.40;;;;;;4196055;28;20203;-72
2022/08/10 09:21:25;;;;;;;4.40;1.40;;;23.30;33.70;;;;;;4162543;28;20183;-72
2022/08/10 09:23:35;;;;;;;4.10;3.03;;;23.40;33.10;;;;;;4164133;28;20687;-72
2022/08/10 09:25:40;;;;;;;2.57;2.17;;;23.40;33.00;;;;;;4164027;28;20223;-72
2022/08/10 09:27:44;;;;;;;40.63;37.43;;;23.50;32.30;;;;;;4162978;28;20224;-72
2022/08/10 09:29:58;;;;;;;1.70;1.60;;;23.50;32.70;;;;;;4146592;28;20243;-72
2022/08/10 09:32:07;;;;;;;21.63;20.43;;;23.40;32.30;;;;;;4162721;28;20200;-72
2022/08/10 09:34:30;;;;;;;4.00;3.50;;;23.40;32.00;;;;;;4163554;28;20716;-72
2022/08/10 09:37:01;;;;;;;2.83;1.40;;;23.70;31.90;;;;;;4196455;28;20168;-72
2022/08/10 09:39:36;;;;;;;4.60;4.20;;;23.90;31.80;;;;;;4196081;28;20839;-72
2022/08/10 09:41:56;;;;;;;2.30;1.23;;;24.10;30.90;;;;;;4162552;28;20172;-71
2022/08/10 09:44:30;;;;;;;3.93;3.63;;;24.40;30.50;;;;;;4179489;28;20649;-71
2022/08/10 09:47:06;;;;;;;4.17;3.87;;;24.40;30.00;;;;;;4164369;28;20602;-71
2022/08/10 09:49:21;;;;;;;18.73;17.63;;;24.40;30.40;;;;;;4164211;28;20184;-71
2022/08/10 09:51:59;;;;;;;4.13;1.80;;;24.10;31.10;;;;;;4162257;28;20185;-70
2022/08/10 09:54:38;;;;;;;1.90;1.47;;;24.10;31.30;;;;;;4146571;28;20182;-71
2022/08/10 09:57:30;;;;;;;1.83;1.40;;;24.10;31.00;;;;;;4196761;28;20187;-71
2022/08/10 09:59:47;;;;;;;4.50;3.20;;;24.30;30.30;;;;;;4163660;28;20204;-71
2022/08/10 10:01:56;;;;;;;106.70;100.00;;;24.70;29.50;;;;;;4195666;28;20211;-71
2022/08/10 10:04:07;;;;;;;4.10;2.93;;;24.60;29.30;;;;;;4146456;28;20173;-71
2022/08/10 10:06:19;;;;;;;3.13;1.30;;;24.20;30.00;;;;;;4195753;28;20190;-71
2022/08/10 10:08:41;;;;;;;2.93;1.70;;;24.80;29.30;;;;;;4179238;28;20176;-70
2022/08/10 10:11:11;;;;;;;1.80;1.60;;;25.10;28.90;;;;;;4195022;28;20169;-71
2022/08/10 10:13:26;;;;;;;1.77;1.67;;;25.80;28.40;;;;;;4195816;28;20257;-71
2022/08/10 10:15:40;;;;;;;2.77;1.47;;;25.50;28.00;;;;;;4162803;28;20172;-71
2022/08/10 10:18:03;;;;;;;2.03;1.70;;;25.80;27.60;;;;;;4195569;28;20238;-71
2022/08/10 10:20:41;;;;;;;2.20;1.50;;;25.40;27.80;;;;;;4195464;28;20637;-72
2022/08/10 10:23:26;;;;;;;6.00;5.50;;;25.90;27.20;;;;;;4178774;28;20208;-71
2022/08/10 10:25:42;;;;;;;1.93;1.80;;;26.10;26.90;;;;;;4164017;28;20203;-71
2022/08/10 10:28:01;;;;;;;4.47;4.07;;;26.40;26.40;;;;;;4160901;28;20552;-71
2022/08/10 10:30:12;;;;;;;6.47;5.97;;;26.60;26.10;;;;;;4195052;28;20736;-71
2022/08/10 10:32:27;;;;;;;3.77;3.47;;;26.90;25.50;;;;;;4194798;28;20207;-71
2022/08/10 10:34:53;;;;;;;1.80;1.70;;;27.10;25.20;;;;;;4194975;28;20600;-71
2022/08/10 10:36:55;;;;;;;1.63;1.53;;;27.60;24.70;;;;;;4163228;28;20321;-71
2022/08/10 10:38:58;;;;;;;3.37;2.07;;;28.40;24.20;;;;;;4194926;28;20273;-71
2022/08/10 10:41:13;;;;;;;2.13;1.90;;;28.50;24.00;;;;;;4194390;28;20767;-71
2022/08/10 10:43:46;;;;;;;2.23;2.03;;;28.70;22.70;;;;;;4194698;28;20199;-71
2022/08/10 10:46:22;;;;;;;49.23;46.40;;;28.20;23.10;;;;;;4194679;28;20176;-73
2022/08/10 10:49:10;;;;;;;4.70;1.63;;;29.20;22.10;;;;;;4163105;28;20238;-72
2022/08/10 10:51:40;;;;;;;3.17;1.60;;;29.70;21.40;;;;;;4173645;28;20204;-72
2022/08/10 10:54:23;;;;;;;2.45;2.25;;;29.00;21.70;;;;;;4194685;28;20198;-71
2022/08/10 10:56:59;;;;;;;3.10;2.00;;;29.00;22.20;;;;;;4194431;28;20211;-71
2022/08/10 10:59:24;;;;;;;2.80;2.63;;;29.80;20.90;;;;;;4160618;28;20239;-71
2022/08/10 11:01:43;;;;;;;2.15;1.70;;;29.60;21.40;;;;;;4175630;28;20240;-72
2022/08/10 11:04:23;;;;;;;2.80;2.58;;;30.40;20.60;;;;;;4161762;28;20174;-71
2022/08/10 11:06:49;;;;;;;1.98;1.88;;;29.00;21.30;;;;;;4161709;28;20713;-71
2022/08/10 11:09:01;;;;;;;3.22;2.05;;;30.60;20.60;;;;;;4162906;28;20215;-72
2022/08/10 11:11:13;;;;;;;13.73;12.52;;;30.60;20.10;;;;;;4177232;28;20184;-71